Terminal Aerodrome Forecast
Issued by NWS Albany, NY

Home | Current Version | Previous Version | Text Only | Print | Product List | Glossary On
Versions: 1 2 3 4 5 6 7 8 9 10 11 12 13 14 15 16 17 18 19 20
000
FTUS41 KALY 312300
TAFGFL
TAF
KGFL 312324Z 0100/0124 VRB03KT P6SM VCSH BKN080
     FM010300 00000KT 4SM BR SCT250
     FM010800 00000KT 2SM BR BKN008 BKN250
     FM011200 18003KT P6SM SCT040
     FM011600 19007KT P6SM BKN060=

USA.gov is the U.S. government's official web portal to all federal, state and local government web resources and services.